»·PEaware :: BADGR23 KEND-KEND

BADGR23 :: KEND-KEND

FLIGHT INFORMATION

Flight Status: Arrived
Operator: Unknown
More flights by this operator :: More flights under this callsign
Pilot: Hunter C. (22229)
Aircraft: BEECH AIRCRAFT T-6A TEXAN
(TEX2)
More flights by this aircraft type
Origin: KEND Vance AFB
United States
Destination: KEND Vance AFB
United States
More flights between these airports :: More routes between these airports
Route: +AVK
File this flight plan on PilotEdge
Remarks:
Altitude:
(Current/Filed)
0ft
Speed:
(Current/Filed)
0kts
Departed: 17-Sep-20 06:45 AM
Arrived: 17-Sep-20 07:28 AM
Distance/Time
Traveled:
0nm/0:43
Distance/Time
To Go:
Arrived

Flight Plot

Page will automatically refresh every two minutes.

Flight plan parsing failed; only flown route is shown


Map Options




Map Legend


Flown Route
Filed Route
Departure Airport
Arrival Airport
Navaid (VOR, NDB)
Fix

Horizontal Profiles

Position Reports

Time Latitude Longitude Heading Altitude Ground
Speed
17-Sep-20 06:38 36.346971 -97.909990 217 1279ft 0kts
17-Sep-20 06:39 36.346971 -97.909990 216 1279ft 0kts
17-Sep-20 06:40 36.346971 -97.909990 216 1279ft 0kts
17-Sep-20 06:41 36.346971 -97.909990 216 1279ft 0kts
17-Sep-20 06:42 36.346971 -97.909990 216 1279ft 0kts
17-Sep-20 06:43 36.346823 -97.910152 234 1279ft 6kts
17-Sep-20 06:44 36.335217 -97.910833 177 1459ft 140kts
17-Sep-20 06:45 36.285827 -97.902461 170 3347ft 203kts
17-Sep-20 06:46 36.293393 -97.853516 5 4988ft 245kts
17-Sep-20 06:47 36.358464 -97.871982 333 4930ft 230kts
17-Sep-20 06:48 36.411963 -97.906084 352 4778ft 231kts
17-Sep-20 06:49 36.474031 -97.906639 359 4993ft 219kts
17-Sep-20 06:50 36.537348 -97.902561 1 5591ft 226kts
17-Sep-20 06:51 36.601634 -97.897234 350 6132ft 241kts
17-Sep-20 06:52 36.631135 -97.967168 291 6056ft 243kts
17-Sep-20 06:53 36.656137 -98.045771 291 6025ft 239kts
17-Sep-20 06:54 36.681992 -98.121820 291 4739ft 235kts
17-Sep-20 06:55 36.707731 -98.190098 295 4402ft 194kts
17-Sep-20 06:56 36.732555 -98.247865 290 4466ft 199kts
17-Sep-20 06:57 36.745066 -98.315775 279 4505ft 201kts
17-Sep-20 06:58 36.755649 -98.384340 281 4497ft 202kts
17-Sep-20 07:00 36.769542 -98.452074 284 4525ft 203kts
17-Sep-20 07:01 36.785675 -98.519627 287 4514ft 202kts
17-Sep-20 07:02 36.801395 -98.586584 270 4357ft 204kts
17-Sep-20 07:03 36.791807 -98.657947 273 3015ft 210kts
17-Sep-20 07:04 36.764262 -98.683727 188 2691ft 118kts
17-Sep-20 07:05 36.771471 -98.670441 354 1543ft 153kts
17-Sep-20 07:06 36.775151 -98.683624 182 2542ft 152kts
17-Sep-20 07:07 36.772849 -98.670470 356 1606ft 160kts
17-Sep-20 07:08 36.828926 -98.662851 10 3342ft 229kts
17-Sep-20 07:09 36.849722 -98.606927 107 5664ft 233kts
17-Sep-20 07:10 36.832432 -98.528088 112 5478ft 231kts
17-Sep-20 07:11 36.801443 -98.458672 122 5407ft 228kts
17-Sep-20 07:12 36.767367 -98.392957 120 5531ft 224kts
17-Sep-20 07:13 36.739677 -98.322213 114 5475ft 231kts
17-Sep-20 07:14 36.718063 -98.247536 111 5528ft 228kts
17-Sep-20 07:15 36.708452 -98.168916 93 5631ft 227kts
17-Sep-20 07:16 36.703980 -98.089211 95 6413ft 233kts
17-Sep-20 07:16 36.700869 -98.019755 90 6311ft 246kts
17-Sep-20 07:18 36.687149 -97.920970 104 6292ft 249kts
17-Sep-20 07:19 36.667733 -97.837139 107 6203ft 248kts
17-Sep-20 07:19 36.625621 -97.803050 178 4458ft 257kts
17-Sep-20 07:20 36.556291 -97.800776 183 3099ft 220kts
17-Sep-20 07:22 36.501640 -97.847567 220 2304ft 206kts
17-Sep-20 07:22 36.473509 -97.895887 234 2289ft 208kts
17-Sep-20 07:23 36.418537 -97.906860 180 2292ft 208kts
17-Sep-20 07:24 36.360865 -97.910724 181 2234ft 209kts
17-Sep-20 07:25 36.357565 -97.896042 353 2409ft 130kts
17-Sep-20 07:26 36.341727 -97.910963 180 1284ft 81kts
17-Sep-20 07:27 36.333724 -97.910228 49 1291ft 4kts
17-Sep-20 07:28 36.333738 -97.910208 47 1291ft 0kts

Navigation Log

Ident Type
Flight plan parsing failed, navigation log unavailable